createdAt,value
2023-06-30T00:00:58.648Z,100
2023-06-30T00:01:58.586Z,100
2023-06-30T00:02:58.711Z,100
2023-06-30T00:03:58.659Z,100
2023-06-30T00:04:58.643Z,100
2023-06-30T00:05:58.652Z,100
2023-06-30T00:06:58.638Z,100
2023-06-30T00:07:58.653Z,100
2023-06-30T00:08:58.701Z,100
2023-06-30T00:09:58.740Z,100
2023-06-30T00:10:58.759Z,100
2023-06-30T00:11:58.703Z,100
2023-06-30T00:12:58.736Z,100
2023-06-30T00:13:58.755Z,100
2023-06-30T00:14:58.934Z,100
2023-06-30T00:15:58.901Z,100
2023-06-30T00:16:58.808Z,100
2023-06-30T00:17:58.817Z,100
2023-06-30T00:18:59.302Z,100
2023-06-30T00:19:59.038Z,100
2023-06-30T00:20:59.010Z,100
2023-06-30T00:21:58.860Z,100
2023-06-30T00:22:58.997Z,100
2023-06-30T00:23:58.860Z,100
2023-06-30T00:24:58.976Z,100
2023-06-30T00:25:58.924Z,100
2023-06-30T00:26:58.974Z,100
2023-06-30T00:27:58.962Z,100
2023-06-30T00:28:58.939Z,100
2023-06-30T00:29:59.180Z,100
2023-06-30T00:30:58.999Z,100
2023-06-30T00:31:59.019Z,100
2023-06-30T00:32:59.021Z,100
2023-06-30T00:33:59.214Z,100
2023-06-30T00:34:59.237Z,100
2023-06-30T00:35:59.053Z,100
2023-06-30T00:36:59.051Z,100
2023-06-30T00:37:59.143Z,100
2023-06-30T00:38:59.316Z,100
2023-06-30T00:39:59.098Z,100
2023-06-30T00:40:59.109Z,100
2023-06-30T00:41:59.161Z,100
2023-06-30T00:42:59.117Z,100
2023-06-30T00:43:59.123Z,100
2023-06-30T00:44:59.144Z,100
2023-06-30T00:45:59.399Z,100
2023-06-30T00:46:59.534Z,100
2023-06-30T00:47:59.251Z,100
2023-06-30T00:48:59.236Z,100
2023-06-30T00:49:59.291Z,100
2023-06-30T00:50:59.554Z,100
2023-06-30T00:52:00.116Z,100
2023-06-30T00:52:59.876Z,100
2023-06-30T00:53:59.459Z,100
2023-06-30T00:54:59.316Z,100
2023-06-30T00:55:59.360Z,100
2023-06-30T00:56:59.683Z,100
2023-06-30T00:57:59.326Z,100
2023-06-30T00:58:59.406Z,100
2023-06-30T00:59:59.391Z,100
2023-06-30T01:01:02.226Z,100
2023-06-30T01:02:02.209Z,100
2023-06-30T01:03:10.432Z,100
2023-06-30T01:04:07.585Z,100
2023-06-30T01:05:18.566Z,100
2023-06-30T01:06:09.329Z,100
2023-06-30T01:09:12.742Z,100
2023-06-30T01:10:15.977Z,100
2023-06-30T01:11:12.548Z,100
2023-06-30T01:12:12.185Z,100
2023-06-30T01:13:12.500Z,100
2023-06-30T01:14:12.294Z,100
2023-06-30T01:15:13.248Z,100
2023-06-30T01:16:12.536Z,100
2023-06-30T01:17:12.592Z,100
2023-06-30T01:18:13.187Z,100
2023-06-30T01:19:18.139Z,100
2023-06-30T01:20:15.656Z,100
2023-06-30T01:21:15.811Z,100
2023-06-30T01:24:23.766Z,100
2023-06-30T01:25:22.185Z,100
2023-06-30T01:26:22.016Z,100
2023-06-30T01:27:21.788Z,100
2023-06-30T01:28:21.570Z,100
2023-06-30T01:29:21.624Z,100
2023-06-30T01:30:22.196Z,100
2023-06-30T01:31:21.593Z,100
2023-06-30T01:32:21.565Z,100
2023-06-30T01:33:21.566Z,100
2023-06-30T01:34:22.221Z,100
2023-06-30T01:35:24.199Z,100
2023-06-30T01:36:21.481Z,100
2023-06-30T01:37:21.500Z,100
2023-06-30T01:38:21.531Z,100
2023-06-30T01:39:21.861Z,100
2023-06-30T01:40:22.387Z,100
2023-06-30T01:41:21.754Z,100
2023-06-30T01:42:21.543Z,100
2023-06-30T01:43:21.583Z,100
2023-06-30T01:44:21.711Z,100
2023-06-30T01:45:22.237Z,100
2023-06-30T01:46:21.866Z,100
2023-06-30T01:47:21.843Z,100
2023-06-30T01:48:22.000Z,100
2023-06-30T01:49:22.286Z,100
2023-06-30T01:50:22.039Z,100
2023-06-30T01:51:21.864Z,100
2023-06-30T01:52:21.866Z,100
2023-06-30T01:53:21.727Z,100
2023-06-30T01:54:21.774Z,100
2023-06-30T01:55:21.753Z,100
2023-06-30T01:56:21.762Z,100
2023-06-30T01:57:21.771Z,100
2023-06-30T01:58:21.890Z,100
2023-06-30T01:59:21.771Z,100
2023-06-30T02:00:21.805Z,100
2023-06-30T02:01:21.903Z,100
2023-06-30T02:02:21.944Z,100
2023-06-30T02:03:21.915Z,100
2023-06-30T02:04:21.853Z,100
2023-06-30T02:05:21.864Z,100
2023-06-30T02:06:22.020Z,100
2023-06-30T02:07:21.914Z,100
2023-06-30T02:08:21.893Z,100
2023-06-30T02:09:25.806Z,100
2023-06-30T02:10:22.266Z,100
2023-06-30T02:11:22.305Z,100
2023-06-30T02:12:22.394Z,100
2023-06-30T02:13:22.523Z,100
2023-06-30T02:14:23.027Z,100
2023-06-30T02:15:22.347Z,100
2023-06-30T02:16:22.454Z,100
2023-06-30T02:17:28.903Z,100
2023-06-30T02:18:25.178Z,100
2023-06-30T02:19:25.244Z,100
2023-06-30T02:20:25.221Z,100
2023-06-30T02:21:26.265Z,100
2023-06-30T02:22:25.252Z,100
2023-06-30T02:23:25.271Z,100
2023-06-30T02:24:25.268Z,100
2023-06-30T02:25:25.298Z,100
2023-06-30T02:26:25.303Z,100
2023-06-30T02:27:25.504Z,100
2023-06-30T02:28:25.300Z,100
2023-06-30T02:29:25.318Z,100
2023-06-30T02:30:25.316Z,100
2023-06-30T02:31:25.399Z,100
2023-06-30T02:32:25.431Z,100
2023-06-30T02:33:25.386Z,100
2023-06-30T02:34:25.395Z,100
2023-06-30T02:35:25.517Z,100
2023-06-30T02:36:25.456Z,100
2023-06-30T02:37:25.508Z,100
2023-06-30T02:38:25.439Z,100
2023-06-30T02:39:25.667Z,100
2023-06-30T02:40:25.506Z,100
2023-06-30T02:41:25.495Z,100
2023-06-30T02:42:25.543Z,100
2023-06-30T02:43:25.545Z,100
2023-06-30T02:44:25.544Z,100
2023-06-30T02:45:25.584Z,100
2023-06-30T02:46:25.667Z,100
2023-06-30T02:47:25.592Z,100
2023-06-30T02:48:25.626Z,100
2023-06-30T02:49:25.808Z,100
2023-06-30T02:50:29.529Z,100
2023-06-30T02:51:25.727Z,100
2023-06-30T02:52:25.731Z,100
2023-06-30T02:53:25.805Z,100
2023-06-30T02:54:25.769Z,100
2023-06-30T02:55:25.796Z,100
2023-06-30T02:56:25.791Z,100
2023-06-30T02:57:26.071Z,100
2023-06-30T02:58:26.034Z,100
2023-06-30T02:59:25.864Z,100
2023-06-30T03:00:25.877Z,100
2023-06-30T03:01:25.983Z,100
2023-06-30T03:02:26.014Z,100
2023-06-30T03:03:25.964Z,100
2023-06-30T03:04:25.929Z,100
2023-06-30T03:05:25.916Z,100
2023-06-30T03:06:25.941Z,100
2023-06-30T03:07:26.483Z,100
2023-06-30T03:08:26.038Z,100
2023-06-30T03:09:26.009Z,100
2023-06-30T03:10:26.008Z,100
2023-06-30T03:11:26.113Z,100
2023-06-30T03:12:26.071Z,100
2023-06-30T03:13:26.247Z,100
2023-06-30T03:14:26.094Z,100
2023-06-30T03:15:26.140Z,100
2023-06-30T03:16:26.148Z,100
2023-06-30T03:17:26.153Z,100
2023-06-30T03:18:26.181Z,100
2023-06-30T03:19:26.196Z,100
2023-06-30T03:20:26.180Z,100
2023-06-30T03:21:26.190Z,100
2023-06-30T03:22:26.199Z,100
2023-06-30T03:23:26.210Z,100
2023-06-30T03:24:26.299Z,100
2023-06-30T03:25:26.311Z,100
2023-06-30T03:26:26.268Z,100
2023-06-30T03:27:26.278Z,100
2023-06-30T03:28:26.320Z,100
2023-06-30T03:29:26.621Z,100
2023-06-30T03:30:26.298Z,100
2023-06-30T03:31:26.407Z,100
2023-06-30T03:32:26.381Z,100
2023-06-30T03:33:26.354Z,100
2023-06-30T03:34:26.428Z,100
2023-06-30T03:35:26.608Z,100
2023-06-30T03:36:26.433Z,100
2023-06-30T03:37:26.426Z,100
2023-06-30T03:38:26.444Z,100
2023-06-30T03:39:26.689Z,100
2023-06-30T03:40:26.542Z,100
2023-06-30T03:41:26.527Z,100
2023-06-30T03:42:26.570Z,100
2023-06-30T03:43:26.548Z,100
2023-06-30T03:44:26.581Z,100
2023-06-30T03:45:26.619Z,100
2023-06-30T03:46:26.617Z,100
2023-06-30T03:47:26.642Z,100
2023-06-30T03:48:26.635Z,100
2023-06-30T03:49:26.630Z,100
2023-06-30T03:50:26.658Z,100
2023-06-30T03:51:26.678Z,100
2023-06-30T03:52:26.673Z,100
2023-06-30T03:53:26.668Z,100
2023-06-30T03:54:26.704Z,100
2023-06-30T03:55:26.796Z,100
2023-06-30T03:56:26.735Z,100
2023-06-30T03:57:26.772Z,100
2023-06-30T03:58:26.794Z,100
2023-06-30T03:59:26.782Z,100
2023-06-30T04:00:26.855Z,100
2023-06-30T04:01:26.811Z,100
2023-06-30T04:02:26.947Z,100
2023-06-30T04:03:28.123Z,100
2023-06-30T04:04:27.005Z,100
2023-06-30T04:05:26.983Z,100
2023-06-30T04:06:26.912Z,100
2023-06-30T04:07:27.005Z,100
2023-06-30T04:08:27.195Z,100
2023-06-30T04:09:26.989Z,100
2023-06-30T04:10:26.969Z,100
2023-06-30T04:11:27.045Z,100
2023-06-30T04:12:27.015Z,100
2023-06-30T04:13:27.019Z,100
2023-06-30T04:14:27.031Z,100
2023-06-30T04:15:27.097Z,100
2023-06-30T04:16:27.186Z,100
2023-06-30T04:17:27.132Z,100
2023-06-30T04:18:27.104Z,100
2023-06-30T04:19:27.138Z,100
2023-06-30T04:20:27.252Z,100
2023-06-30T04:21:27.295Z,100
2023-06-30T04:22:27.189Z,100
2023-06-30T04:23:27.201Z,100
2023-06-30T04:24:27.190Z,100
2023-06-30T04:25:27.220Z,100
2023-06-30T04:26:27.299Z,100
2023-06-30T04:27:27.251Z,100
2023-06-30T04:28:27.534Z,100
2023-06-30T04:29:27.259Z,100
2023-06-30T04:30:27.329Z,100
2023-06-30T04:31:27.338Z,100
2023-06-30T04:32:27.357Z,100
2023-06-30T04:33:27.935Z,100
2023-06-30T04:34:27.976Z,100
2023-06-30T04:35:28.036Z,100
2023-06-30T04:36:27.969Z,100
2023-06-30T04:37:28.048Z,100
2023-06-30T04:38:28.134Z,100
2023-06-30T04:39:28.217Z,100
2023-06-30T04:40:28.078Z,100
2023-06-30T04:41:28.101Z,100
2023-06-30T04:42:28.227Z,100
2023-06-30T04:43:28.112Z,100
2023-06-30T04:44:28.123Z,100
2023-06-30T04:45:28.142Z,100
2023-06-30T04:46:28.189Z,100
2023-06-30T04:47:28.170Z,100
2023-06-30T04:48:28.234Z,100
2023-06-30T04:49:28.198Z,100
2023-06-30T04:50:28.256Z,100
2023-06-30T04:51:28.269Z,100
2023-06-30T04:52:28.610Z,100
2023-06-30T04:53:28.309Z,100
2023-06-30T04:54:28.295Z,100
2023-06-30T04:55:28.526Z,100
2023-06-30T04:56:28.330Z,100
2023-06-30T04:57:28.364Z,100
2023-06-30T04:58:28.390Z,100
2023-06-30T04:59:28.472Z,100
2023-06-30T05:00:28.396Z,100
2023-06-30T05:01:28.459Z,100
2023-06-30T05:02:28.587Z,100
2023-06-30T05:03:28.477Z,100
2023-06-30T05:04:28.459Z,100
2023-06-30T05:05:28.479Z,100
2023-06-30T05:06:28.460Z,100
2023-06-30T05:07:28.526Z,100
2023-06-30T05:08:28.548Z,100
2023-06-30T05:09:28.513Z,100
2023-06-30T05:10:28.554Z,100
2023-06-30T05:11:28.548Z,100
2023-06-30T05:12:28.569Z,100
2023-06-30T05:13:28.601Z,100
2023-06-30T05:14:28.620Z,100
2023-06-30T05:15:28.605Z,100
2023-06-30T05:16:28.699Z,100
2023-06-30T05:17:28.833Z,100
2023-06-30T05:18:28.762Z,100
2023-06-30T05:19:28.735Z,100
2023-06-30T05:20:28.749Z,100
2023-06-30T05:21:28.720Z,100
2023-06-30T05:22:28.732Z,100
2023-06-30T05:23:28.763Z,100
2023-06-30T05:24:28.792Z,100
2023-06-30T05:25:28.836Z,100
2023-06-30T05:26:28.833Z,100
2023-06-30T05:27:28.833Z,100
2023-06-30T05:28:28.891Z,100
2023-06-30T05:29:32.178Z,100
2023-06-30T05:30:28.974Z,100
2023-06-30T05:31:28.961Z,100
2023-06-30T05:32:28.918Z,100
2023-06-30T05:33:29.085Z,100
2023-06-30T05:34:28.907Z,100
2023-06-30T05:35:28.966Z,100
2023-06-30T05:36:31.753Z,100
2023-06-30T05:37:28.995Z,100
2023-06-30T05:38:29.032Z,100
2023-06-30T05:39:29.122Z,100
2023-06-30T05:40:29.038Z,100
2023-06-30T05:41:29.053Z,100
2023-06-30T05:42:29.061Z,100
2023-06-30T05:43:29.076Z,100
2023-06-30T05:44:29.120Z,100
2023-06-30T05:45:29.219Z,100
2023-06-30T05:46:29.191Z,100
2023-06-30T05:47:29.316Z,100
2023-06-30T05:48:29.199Z,100
2023-06-30T05:49:29.274Z,100
2023-06-30T05:50:29.215Z,100
2023-06-30T05:51:29.452Z,100
2023-06-30T05:52:29.251Z,100
2023-06-30T05:53:29.231Z,100
2023-06-30T05:54:29.303Z,100
2023-06-30T05:55:29.298Z,100
2023-06-30T05:56:29.903Z,100
2023-06-30T05:57:29.317Z,100
2023-06-30T05:58:29.345Z,100
2023-06-30T05:59:29.464Z,100
2023-06-30T06:00:29.346Z,100
2023-06-30T06:01:29.382Z,100
2023-06-30T06:02:29.700Z,100
2023-06-30T06:03:29.531Z,100
2023-06-30T06:04:29.567Z,100
2023-06-30T06:05:29.543Z,100
2023-06-30T06:06:29.444Z,100
2023-06-30T06:07:29.596Z,100
2023-06-30T06:08:29.499Z,100
2023-06-30T06:09:29.636Z,100
2023-06-30T06:10:29.701Z,100
2023-06-30T06:11:29.735Z,100
2023-06-30T06:12:29.590Z,100
2023-06-30T06:13:36.518Z,100
2023-06-30T06:14:32.719Z,100
2023-06-30T06:15:32.721Z,100
2023-06-30T06:16:32.780Z,100
2023-06-30T06:17:33.417Z,100
2023-06-30T06:18:33.048Z,100
2023-06-30T06:19:32.800Z,100
2023-06-30T06:20:32.821Z,100
2023-06-30T06:21:32.831Z,100
2023-06-30T06:22:32.971Z,100
2023-06-30T06:23:32.944Z,100
2023-06-30T06:24:32.884Z,100
2023-06-30T06:25:32.877Z,100
2023-06-30T06:26:32.941Z,100
2023-06-30T06:27:35.925Z,100
2023-06-30T06:28:32.923Z,100
2023-06-30T06:29:32.948Z,100
2023-06-30T06:30:32.963Z,100
2023-06-30T06:31:32.957Z,100
2023-06-30T06:32:33.158Z,100
2023-06-30T06:33:33.006Z,100
2023-06-30T06:34:33.024Z,100
2023-06-30T06:35:33.067Z,100
2023-06-30T06:36:33.026Z,100
2023-06-30T06:37:33.042Z,100
2023-06-30T06:38:33.082Z,100
2023-06-30T06:39:33.244Z,100
2023-06-30T06:40:33.190Z,100
2023-06-30T06:41:33.139Z,100
2023-06-30T06:42:33.153Z,100
2023-06-30T06:43:33.187Z,100
2023-06-30T06:44:33.199Z,100
2023-06-30T06:45:33.209Z,100
2023-06-30T06:46:33.472Z,100
2023-06-30T06:48:38.076Z,100
2023-06-30T06:49:38.104Z,100
2023-06-30T06:50:38.095Z,100
2023-06-30T06:51:38.105Z,100
2023-06-30T06:52:38.102Z,100
2023-06-30T06:53:38.127Z,100
2023-06-30T06:54:38.170Z,100
2023-06-30T06:55:38.694Z,100
2023-06-30T06:56:38.885Z,100
2023-06-30T06:57:38.819Z,100
2023-06-30T06:58:39.025Z,100
2023-06-30T06:59:38.879Z,100
2023-06-30T07:00:38.900Z,100
2023-06-30T07:01:38.868Z,100
2023-06-30T07:02:38.864Z,100
2023-06-30T07:03:39.268Z,100
2023-06-30T07:04:38.991Z,100
2023-06-30T07:05:38.864Z,100
2023-06-30T07:06:38.883Z,100
2023-06-30T07:07:38.981Z,100
2023-06-30T07:08:39.417Z,100
2023-06-30T07:09:39.378Z,100
2023-06-30T07:10:39.878Z,100
2023-06-30T07:11:39.473Z,100
2023-06-30T07:12:39.487Z,100
2023-06-30T07:13:39.555Z,100
2023-06-30T07:14:39.511Z,100
2023-06-30T07:15:39.538Z,100
2023-06-30T07:16:39.611Z,100
2023-06-30T07:17:39.617Z,100
2023-06-30T07:18:39.706Z,100
2023-06-30T07:19:39.729Z,100
2023-06-30T07:20:39.583Z,100
2023-06-30T07:21:39.642Z,100
2023-06-30T07:22:39.636Z,100
2023-06-30T07:23:39.682Z,100
2023-06-30T07:24:43.669Z,100
2023-06-30T07:25:40.953Z,100
2023-06-30T07:26:40.963Z,100
2023-06-30T07:27:47.382Z,100
2023-06-30T07:28:43.988Z,100
2023-06-30T07:29:44.060Z,100
2023-06-30T07:30:44.191Z,100
2023-06-30T07:31:44.108Z,100
2023-06-30T07:32:44.108Z,100
2023-06-30T07:33:44.238Z,100
2023-06-30T07:34:44.126Z,100
2023-06-30T07:35:44.477Z,100
2023-06-30T07:36:44.189Z,100
2023-06-30T07:37:44.598Z,100
2023-06-30T07:38:44.216Z,100
2023-06-30T07:39:44.428Z,100
2023-06-30T07:40:55.132Z,100
2023-06-30T07:41:48.961Z,100
2023-06-30T07:42:48.040Z,100
2023-06-30T07:43:48.039Z,100
2023-06-30T07:44:48.058Z,100
2023-06-30T07:45:48.402Z,100
2023-06-30T07:46:48.145Z,100
2023-06-30T07:47:48.271Z,100
2023-06-30T07:48:48.236Z,100
2023-06-30T07:49:48.296Z,100
2023-06-30T07:51:03.301Z,100
2023-06-30T07:51:48.810Z,100
2023-06-30T07:52:49.576Z,100
2023-06-30T07:53:48.856Z,100
2023-06-30T07:54:48.848Z,100
2023-06-30T07:55:50.528Z,100
2023-06-30T07:56:48.870Z,100
2023-06-30T07:57:48.897Z,100
2023-06-30T07:58:48.865Z,100
2023-06-30T07:59:48.928Z,100
2023-06-30T08:00:48.924Z,100
2023-06-30T08:01:48.954Z,100
2023-06-30T08:02:49.378Z,100
2023-06-30T08:03:49.098Z,100
2023-06-30T08:04:49.264Z,100
2023-06-30T08:05:49.369Z,100
2023-06-30T08:06:49.014Z,100
2023-06-30T08:07:51.340Z,100
2023-06-30T08:08:49.420Z,100
2023-06-30T08:09:49.146Z,100
2023-06-30T08:10:49.318Z,100
2023-06-30T08:11:49.105Z,100
2023-06-30T08:12:49.118Z,100
2023-06-30T08:13:49.125Z,100
2023-06-30T08:14:49.204Z,100
2023-06-30T08:15:49.903Z,100
2023-06-30T08:16:49.232Z,100
2023-06-30T08:17:53.120Z,100
2023-06-30T08:18:51.189Z,100
2023-06-30T08:19:49.765Z,100
2023-06-30T08:20:49.393Z,100
2023-06-30T08:21:49.439Z,100
2023-06-30T08:22:49.505Z,100
2023-06-30T08:23:49.460Z,100
2023-06-30T08:24:49.630Z,100
2023-06-30T08:25:49.486Z,100
2023-06-30T08:26:49.496Z,100
2023-06-30T08:27:49.681Z,100
2023-06-30T08:28:49.489Z,100
2023-06-30T08:29:50.223Z,100
2023-06-30T08:30:49.968Z,100
2023-06-30T08:31:49.556Z,100
2023-06-30T08:32:49.825Z,100
2023-06-30T08:33:49.621Z,100
2023-06-30T08:34:49.619Z,100
2023-06-30T08:35:49.645Z,100
2023-06-30T08:36:49.640Z,100
2023-06-30T08:37:53.104Z,100
2023-06-30T08:38:50.289Z,100
2023-06-30T08:39:50.454Z,100
2023-06-30T08:40:50.462Z,100
2023-06-30T08:41:52.940Z,100
2023-06-30T08:42:52.516Z,100
2023-06-30T08:43:51.612Z,100
2023-06-30T08:44:51.211Z,100
2023-06-30T08:45:53.595Z,100
2023-06-30T08:46:54.398Z,100
2023-06-30T08:47:51.885Z,100
2023-06-30T08:48:51.604Z,100
2023-06-30T08:49:51.719Z,100
2023-06-30T08:50:51.026Z,100
2023-06-30T08:51:55.326Z,100
2023-06-30T08:52:52.240Z,100
2023-06-30T08:53:51.657Z,100
2023-06-30T08:54:52.363Z,100
2023-06-30T08:55:52.255Z,100
2023-06-30T08:56:54.344Z,100
2023-06-30T08:57:55.056Z,100
2023-06-30T08:58:52.316Z,100
2023-06-30T08:59:52.322Z,100
2023-06-30T09:00:52.601Z,100
2023-06-30T09:01:52.580Z,100
2023-06-30T09:02:53.857Z,100
2023-06-30T09:03:52.630Z,100
2023-06-30T09:04:52.568Z,100
2023-06-30T09:05:54.607Z,100
2023-06-30T09:06:53.302Z,100
2023-06-30T09:07:56.576Z,100
2023-06-30T09:10:00.768Z,100
2023-06-30T09:10:58.110Z,100
2023-06-30T09:11:57.798Z,100
2023-06-30T09:12:57.914Z,100
2023-06-30T09:13:57.632Z,100
2023-06-30T09:14:59.623Z,100
2023-06-30T09:15:58.663Z,100
2023-06-30T09:16:58.228Z,100
2023-06-30T09:17:58.124Z,100
2023-06-30T09:18:57.668Z,100
2023-06-30T09:19:57.596Z,100
2023-06-30T09:20:57.957Z,100
2023-06-30T09:21:57.866Z,100
2023-06-30T09:22:57.863Z,100
2023-06-30T09:23:57.640Z,100
2023-06-30T09:24:57.636Z,100
2023-06-30T09:25:57.715Z,100
2023-06-30T09:26:59.473Z,100
2023-06-30T09:27:57.694Z,100
2023-06-30T09:28:57.810Z,100
2023-06-30T09:29:57.689Z,100
2023-06-30T09:30:59.485Z,100
2023-06-30T09:32:00.981Z,100
2023-06-30T09:32:57.863Z,100
2023-06-30T09:35:09.250Z,100
2023-06-30T09:36:01.008Z,100
2023-06-30T09:37:01.025Z,100
2023-06-30T09:38:00.966Z,100
2023-06-30T09:39:00.981Z,100
2023-06-30T09:40:01.141Z,100
2023-06-30T09:41:04.406Z,100
2023-06-30T09:42:01.104Z,100
2023-06-30T09:43:01.128Z,100
2023-06-30T09:44:01.132Z,100
2023-06-30T09:45:01.567Z,100
2023-06-30T09:46:01.763Z,100
2023-06-30T09:47:01.243Z,100
2023-06-30T09:48:01.220Z,100
2023-06-30T09:49:01.163Z,100
2023-06-30T09:50:01.268Z,100
2023-06-30T09:51:01.338Z,100
2023-06-30T09:52:01.763Z,100
2023-06-30T09:53:01.757Z,100
2023-06-30T09:54:09.031Z,100
2023-06-30T09:55:12.138Z,100
2023-06-30T09:56:08.965Z,100
2023-06-30T09:57:08.851Z,100
2023-06-30T09:58:11.749Z,100
2023-06-30T09:59:13.888Z,100
2023-06-30T10:00:33.961Z,100
2023-06-30T10:01:11.454Z,100
2023-06-30T10:02:13.396Z,100
2023-06-30T10:03:11.530Z,100
2023-06-30T10:04:11.480Z,100
2023-06-30T10:05:11.979Z,100
2023-06-30T10:06:11.900Z,100
2023-06-30T10:07:14.471Z,100
2023-06-30T10:08:11.860Z,100
2023-06-30T10:09:11.816Z,100
2023-06-30T10:10:12.362Z,100
2023-06-30T10:11:11.829Z,100
2023-06-30T10:12:12.286Z,100
2023-06-30T10:13:12.360Z,100
2023-06-30T10:14:12.047Z,100
2023-06-30T10:15:11.965Z,100
2023-06-30T10:16:11.993Z,100
2023-06-30T10:17:12.106Z,100
2023-06-30T10:18:13.130Z,100
2023-06-30T10:19:11.746Z,100
2023-06-30T10:20:12.086Z,100
2023-06-30T10:21:12.191Z,100
2023-06-30T10:22:12.721Z,100
2023-06-30T10:23:12.430Z,100
2023-06-30T10:24:12.151Z,100
2023-06-30T10:25:12.834Z,100
2023-06-30T10:26:13.959Z,100
2023-06-30T10:27:13.900Z,100
2023-06-30T10:28:12.137Z,100
2023-06-30T10:29:11.897Z,100
2023-06-30T10:30:12.480Z,100
2023-06-30T10:31:12.136Z,100
2023-06-30T10:32:12.060Z,100
2023-06-30T10:33:12.118Z,100
2023-06-30T10:34:12.335Z,100
2023-06-30T10:35:12.292Z,100
2023-06-30T10:36:13.039Z,100
2023-06-30T10:37:12.216Z,100
2023-06-30T10:38:12.333Z,100
2023-06-30T10:39:12.558Z,100
2023-06-30T10:41:21.040Z,100
2023-06-30T10:42:17.912Z,100
2023-06-30T10:43:18.086Z,100
2023-06-30T10:44:18.407Z,98.47
2023-06-30T10:45:18.066Z,99.16
2023-06-30T10:46:18.099Z,100
2023-06-30T10:47:26.240Z,100
2023-06-30T10:48:27.589Z,100
2023-06-30T10:49:31.086Z,100
2023-06-30T10:50:27.880Z,100
2023-06-30T10:51:34.546Z,100
2023-06-30T10:52:31.176Z,100
2023-06-30T10:53:31.251Z,100
2023-06-30T10:55:35.140Z,100
2023-06-30T10:56:35.179Z,100
2023-06-30T10:57:37.809Z,100
2023-06-30T10:58:40.537Z,100
2023-06-30T10:59:38.209Z,100
2023-06-30T11:00:37.289Z,100
2023-06-30T11:01:37.993Z,100
2023-06-30T11:02:47.242Z,100
2023-06-30T11:04:44.483Z,100
2023-06-30T11:05:43.492Z,100
2023-06-30T11:06:46.187Z,100
2023-06-30T11:07:46.521Z,100
2023-06-30T11:10:48.470Z,100
2023-06-30T11:11:51.874Z,100
2023-06-30T11:14:05.963Z,94.47
2023-06-30T11:14:58.375Z,94.92
2023-06-30T11:15:57.699Z,95.66
2023-06-30T11:17:01.908Z,92.92
2023-06-30T11:17:59.222Z,97.06
2023-06-30T11:19:01.508Z,100
2023-06-30T11:23:03.892Z,98.62
2023-06-30T11:25:08.828Z,98.01
2023-06-30T11:26:15.149Z,99.2
2023-06-30T11:27:07.060Z,96.94
2023-06-30T11:28:06.759Z,100
2023-06-30T11:29:06.914Z,98.1
2023-06-30T11:30:07.843Z,95.58
2023-06-30T11:31:06.760Z,98.88
2023-06-30T11:32:07.222Z,98.26
2023-06-30T11:33:07.303Z,98.02
2023-06-30T11:34:06.874Z,99.4
2023-06-30T11:35:07.488Z,100
2023-06-30T11:36:12.801Z,97.02
2023-06-30T11:37:09.055Z,100
2023-06-30T11:38:08.999Z,95.18
2023-06-30T11:39:09.008Z,99.62
2023-06-30T11:40:09.257Z,93.59
2023-06-30T11:41:09.185Z,98.07
2023-06-30T11:42:09.048Z,90.16
2023-06-30T11:43:09.472Z,94.61
2023-06-30T11:44:09.115Z,92.08
2023-06-30T11:45:09.541Z,95.25
2023-06-30T11:46:09.208Z,93.58
2023-06-30T11:47:09.242Z,94.85
2023-06-30T11:48:09.151Z,100
2023-06-30T11:49:09.834Z,94.32
2023-06-30T11:50:09.625Z,94.58
2023-06-30T11:51:11.867Z,94.46
2023-06-30T11:52:09.757Z,91.94
2023-06-30T11:53:09.544Z,94.15
2023-06-30T11:54:09.207Z,96.84
2023-06-30T11:55:10.673Z,100
2023-06-30T11:56:09.390Z,97.71
2023-06-30T11:57:09.452Z,98.53
2023-06-30T11:58:09.284Z,100
2023-06-30T11:59:09.257Z,100
2023-06-30T12:00:10.480Z,93.49
2023-06-30T12:01:09.351Z,96.95
2023-06-30T12:02:11.596Z,98.96
2023-06-30T12:03:09.468Z,100
2023-06-30T12:05:11.103Z,100
2023-06-30T12:06:10.669Z,100
2023-06-30T12:07:10.627Z,96.53
2023-06-30T12:08:10.639Z,98.71
2023-06-30T12:09:10.663Z,98.62
2023-06-30T12:10:11.588Z,99.64
2023-06-30T12:11:10.679Z,99.73
2023-06-30T12:12:10.746Z,99.79
2023-06-30T12:13:10.819Z,100
2023-06-30T12:14:10.995Z,98.3
2023-06-30T12:15:13.831Z,96.54
2023-06-30T12:16:10.765Z,100
2023-06-30T12:17:10.751Z,100
2023-06-30T12:18:10.786Z,100
2023-06-30T12:19:10.758Z,100
2023-06-30T12:20:11.550Z,99.1
2023-06-30T12:21:11.618Z,100
2023-06-30T12:22:10.820Z,98.22
2023-06-30T12:23:10.855Z,98.74
2023-06-30T12:25:13.691Z,100
2023-06-30T12:26:14.422Z,100
2023-06-30T12:27:14.190Z,96.24
2023-06-30T12:28:14.197Z,97.22
2023-06-30T12:29:14.205Z,92.77
2023-06-30T12:30:14.714Z,93.84
2023-06-30T12:31:14.262Z,90.31
2023-06-30T12:32:14.724Z,91.53
2023-06-30T12:35:27.540Z,91.99
2023-06-30T12:36:28.669Z,96.24
2023-06-30T12:37:25.295Z,99.45
2023-06-30T12:38:25.311Z,100
2023-06-30T12:39:25.639Z,100
2023-06-30T12:40:28.645Z,100
2023-06-30T12:41:26.500Z,100
2023-06-30T12:42:28.534Z,100
2023-06-30T12:43:25.563Z,100
2023-06-30T12:44:25.527Z,100
2023-06-30T12:45:25.600Z,100
2023-06-30T12:46:25.640Z,100
2023-06-30T12:47:25.737Z,100
2023-06-30T12:48:25.635Z,100
2023-06-30T12:49:25.597Z,100
2023-06-30T12:50:25.624Z,100
2023-06-30T12:51:25.747Z,100
2023-06-30T12:52:25.634Z,100
2023-06-30T12:53:25.699Z,100
2023-06-30T12:54:25.945Z,100
2023-06-30T12:55:25.673Z,100
2023-06-30T12:56:25.985Z,100
2023-06-30T12:57:25.734Z,100
2023-06-30T12:58:26.938Z,100
2023-06-30T12:59:25.855Z,100
2023-06-30T13:00:25.760Z,98.01
2023-06-30T13:01:25.857Z,100
2023-06-30T13:02:25.797Z,97.61
2023-06-30T13:03:25.962Z,99.33
2023-06-30T13:04:28.324Z,97.31
2023-06-30T13:05:25.820Z,95.08
2023-06-30T13:06:25.854Z,96.1
2023-06-30T13:07:25.894Z,98.82
2023-06-30T13:08:25.815Z,96.97
2023-06-30T13:09:26.882Z,96.71
2023-06-30T13:10:26.570Z,99.02
2023-06-30T13:11:25.880Z,98.53
2023-06-30T13:12:26.362Z,96.79
2023-06-30T13:13:26.503Z,95.75
2023-06-30T13:14:26.494Z,96.51
2023-06-30T13:15:26.592Z,91.29
2023-06-30T13:16:26.595Z,92.26
2023-06-30T13:17:26.677Z,94.04
2023-06-30T13:18:27.120Z,94.19
2023-06-30T13:19:26.512Z,98
2023-06-30T13:20:26.605Z,96.33
2023-06-30T13:21:26.677Z,97.56
2023-06-30T13:22:26.560Z,97.19
2023-06-30T13:23:36.337Z,95.26
2023-06-30T13:24:29.497Z,93.14
2023-06-30T13:25:29.428Z,94.52
2023-06-30T13:26:29.500Z,92.57
2023-06-30T13:27:29.610Z,94.05
2023-06-30T13:28:29.560Z,94.54
2023-06-30T13:29:29.508Z,91.37
2023-06-30T13:30:29.558Z,90.95
2023-06-30T13:31:29.794Z,94
2023-06-30T13:32:29.552Z,90.66
2023-06-30T13:33:29.613Z,91.75
2023-06-30T13:34:29.574Z,90.32
2023-06-30T13:35:29.604Z,93.19
2023-06-30T13:36:29.650Z,95.64
2023-06-30T13:37:29.724Z,96.37
2023-06-30T13:38:29.717Z,100
2023-06-30T13:39:29.691Z,100
2023-06-30T13:40:29.701Z,100
2023-06-30T13:41:29.897Z,100
2023-06-30T13:42:29.654Z,100
2023-06-30T13:43:29.862Z,100
2023-06-30T13:44:31.221Z,99.83
2023-06-30T13:45:29.728Z,97.94
2023-06-30T13:46:29.853Z,93.3
2023-06-30T13:47:29.793Z,90.15
2023-06-30T13:48:29.723Z,90.8
2023-06-30T13:49:29.781Z,90.49
2023-06-30T13:50:29.909Z,87.83
2023-06-30T13:51:29.908Z,87.63
2023-06-30T13:52:29.793Z,88.26
2023-06-30T13:53:29.826Z,88.61
2023-06-30T13:54:29.871Z,88.59
2023-06-30T13:55:32.561Z,90.29
2023-06-30T13:56:30.439Z,88.97
2023-06-30T13:57:30.379Z,88.75
2023-06-30T13:58:30.601Z,87.57
2023-06-30T13:59:30.456Z,87.61
2023-06-30T14:00:30.520Z,87.91
2023-06-30T14:01:31.616Z,88.96
2023-06-30T14:02:30.475Z,91.2